createdAt,value
2018-10-09T00:01:40.668Z,25.37
2018-10-09T00:31:59.344Z,26.73
2018-10-09T00:34:48.265Z,27.47
2018-10-09T00:37:26.206Z,26.40
2018-10-09T00:57:56.478Z,23.67
2018-10-09T01:57:01.454Z,26.60
2018-10-09T02:45:14.725Z,26.53
2018-10-09T02:48:29.179Z,26.97
2018-10-09T02:51:32.260Z,25.23
2018-10-09T02:54:22.859Z,26.57
2018-10-09T03:00:18.727Z,27.40
2018-10-09T03:03:15.588Z,28.47
2018-10-09T03:05:56.521Z,26.97
2018-10-09T03:08:57.306Z,29.47
2018-10-09T03:11:51.456Z,27.23
2018-10-09T03:14:30.698Z,25.70
2018-10-09T03:17:48.949Z,28.43
2018-10-09T03:20:49.908Z,28.03
2018-10-09T03:30:11.384Z,25.70
2018-10-09T03:35:50.789Z,25.53
2018-10-09T03:41:59.997Z,27.60
2018-10-09T03:51:52.081Z,26.07
2018-10-09T03:54:35.175Z,25.77
2018-10-09T04:03:24.721Z,24.90
2018-10-09T06:01:22.398Z,29.47
2018-10-09T06:04:00.545Z,30.20
2018-10-09T06:06:30.890Z,30.67
2018-10-09T06:09:01.173Z,29.73
2018-10-09T06:11:47.292Z,32.03
2018-10-09T06:14:18.331Z,34.93
2018-10-09T06:16:50.904Z,29.87
2018-10-09T06:19:21.713Z,30.30
2018-10-09T06:21:52.095Z,29.90
2018-10-09T06:24:25.516Z,32.07
2018-10-09T06:26:57.848Z,33.63
2018-10-09T06:29:46.449Z,32.80
2018-10-09T06:32:19.611Z,32.80
2018-10-09T06:34:50.434Z,32.10
2018-10-09T06:37:33.801Z,33.73
2018-10-09T06:40:22.670Z,33.40
2018-10-09T06:43:23.242Z,33.37
2018-10-09T07:18:13.010Z,31.20
2018-10-09T07:21:13.468Z,30.70
2018-10-09T07:23:47.154Z,33.00
2018-10-09T07:40:25.868Z,35.50
2018-10-09T08:04:46.473Z,36.90
2018-10-09T08:07:32.847Z,37.60
2018-10-09T08:10:11.927Z,38.30
2018-10-09T08:12:43.153Z,37.03
2018-10-09T08:15:29.529Z,36.37
2018-10-09T08:18:01.834Z,34.63
2018-10-09T08:20:34.927Z,35.70
2018-10-09T08:23:07.738Z,34.73
2018-10-09T08:25:59.192Z,33.27
2018-10-09T08:28:45.201Z,33.97
2018-10-09T08:34:44.647Z,34.50
2018-10-09T08:37:29.230Z,35.07
2018-10-09T08:40:02.267Z,32.00
2018-10-09T08:42:43.584Z,35.07
2018-10-09T08:45:29.574Z,33.50
2018-10-09T08:48:03.903Z,33.13
2018-10-09T08:50:36.650Z,33.23
2018-10-09T08:53:13.460Z,32.37
2018-10-09T08:55:48.671Z,30.37
2018-10-09T08:58:22.678Z,32.70
2018-10-09T09:01:03.451Z,31.57
2018-10-09T09:03:34.769Z,31.87
2018-10-09T09:06:36.944Z,32.07
2018-10-09T09:09:10.735Z,33.30
2018-10-09T09:14:49.205Z,31.57
2018-10-09T09:17:21.780Z,31.57
2018-10-09T09:19:57.357Z,33.90
2018-10-09T09:27:20.806Z,33.47
2018-10-09T09:29:52.009Z,33.43
2018-10-09T09:35:38.217Z,32.97
2018-10-09T09:38:20.193Z,32.30
2018-10-09T09:41:05.848Z,33.73
2018-10-09T10:18:29.144Z,31.83
2018-10-09T10:27:48.790Z,31.87
2018-10-09T10:39:35.476Z,31.13
2018-10-09T10:50:33.898Z,30.23
2018-10-09T11:06:54.745Z,27.90
2018-10-09T11:09:46.220Z,29.07
2018-10-09T11:12:33.808Z,27.80
2018-10-09T11:15:15.353Z,27.50
2018-10-09T11:54:31.052Z,23.10
2018-10-09T11:58:14.380Z,21.20
2018-10-09T12:00:59.183Z,19.47
2018-10-09T12:04:08.500Z,20.60
2018-10-09T12:10:01.065Z,18.77
2018-10-09T12:12:40.653Z,18.93
2018-10-09T12:21:43.213Z,17.57
2018-10-09T12:25:04.242Z,17.70
2018-10-09T12:27:41.810Z,16.27
2018-10-09T12:30:32.177Z,16.87
2018-10-09T12:33:09.140Z,17.17
2018-10-09T12:35:44.607Z,13.90
2018-10-09T12:38:36.266Z,14.07
2018-10-09T12:41:17.487Z,15.40
2018-10-09T12:46:43.549Z,16.37
2018-10-09T12:49:20.280Z,12.10
2018-10-09T12:52:01.461Z,12.93
2018-10-09T12:55:15.718Z,15.00
2018-10-09T12:57:54.733Z,14.63
2018-10-09T13:00:34.001Z,12.13
2018-10-09T13:03:18.357Z,13.47
2018-10-09T13:05:55.129Z,13.07
2018-10-09T13:22:53.820Z,12.33
2018-10-09T13:26:04.917Z,16.17
2018-10-09T13:28:43.510Z,13.23
2018-10-09T13:31:14.772Z,13.40
2018-10-09T13:33:50.750Z,12.30
2018-10-09T13:36:20.812Z,11.57
2018-10-09T13:42:12.549Z,12.60
2018-10-09T13:44:55.813Z,13.13
2018-10-09T13:50:31.912Z,13.03
2018-10-09T13:53:52.896Z,13.40
2018-10-09T14:00:05.092Z,12.93
2018-10-09T14:02:50.179Z,11.23
2018-10-09T14:05:30.361Z,14.47
2018-10-09T14:08:09.310Z,11.80
2018-10-09T14:19:53.035Z,11.53
2018-10-09T14:22:41.663Z,11.20
2018-10-09T14:25:19.717Z,11.87
2018-10-09T14:28:59.848Z,12.10
2018-10-09T14:34:45.903Z,11.37
2018-10-09T14:37:30.007Z,11.33
2018-10-09T14:40:18.008Z,12.50
2018-10-09T14:42:49.442Z,10.47
2018-10-09T14:45:21.014Z,12.07
2018-10-09T14:47:52.481Z,11.47
2018-10-09T14:50:22.858Z,11.47
2018-10-09T14:52:56.999Z,11.70
2018-10-09T14:55:28.646Z,12.23
2018-10-09T14:58:15.983Z,10.90
2018-10-09T15:00:46.693Z,12.27
2018-10-09T15:03:17.425Z,10.17
2018-10-09T15:05:50.361Z,11.53
2018-10-09T15:08:20.127Z,11.77
2018-10-09T15:10:50.627Z,10.20
2018-10-09T15:13:20.592Z,10.60
2018-10-09T15:15:54.198Z,11.17
2018-10-09T15:18:24.923Z,10.33
2018-10-09T15:20:55.508Z,11.83
2018-10-09T15:23:27.517Z,13.83
2018-10-09T15:26:05.697Z,11.80
2018-10-09T15:28:38.962Z,9.90
2018-10-09T15:31:13.340Z,10.63
2018-10-09T15:33:44.897Z,12.37
2018-10-09T15:36:24.881Z,13.23
2018-10-09T15:39:02.603Z,28.27
2018-10-09T15:41:34.579Z,22.33
2018-10-09T15:44:16.377Z,14.93
2018-10-09T15:46:56.860Z,13.37
2018-10-09T15:53:01.042Z,11.73
2018-10-09T15:55:35.579Z,12.77
2018-10-09T16:01:11.196Z,13.38
2018-10-09T16:03:48.321Z,12.67
2018-10-09T16:06:29.567Z,14.93
2018-10-09T16:09:12.790Z,13.40
2018-10-09T16:12:10.493Z,12.90
2018-10-09T16:14:56.124Z,12.53
2018-10-09T16:17:40.589Z,13.27
2018-10-09T16:23:13.166Z,13.90
2018-10-09T16:28:57.739Z,13.20
2018-10-09T16:31:35.914Z,14.50
2018-10-09T16:34:10.128Z,16.10
2018-10-09T16:37:16.318Z,15.40
2018-10-09T16:39:50.033Z,15.07
2018-10-09T16:42:20.365Z,16.73
2018-10-09T16:44:51.171Z,17.30
2018-10-09T16:47:24.478Z,15.63
2018-10-09T16:49:59.924Z,15.50
2018-10-09T16:52:35.131Z,17.60
2018-10-09T16:55:07.743Z,19.30
2018-10-09T16:57:39.080Z,18.40
2018-10-09T17:00:11.145Z,20.83
2018-10-09T17:03:08.696Z,21.50
2018-10-09T17:05:42.441Z,24.17
2018-10-09T17:08:27.732Z,23.03
2018-10-09T17:10:59.106Z,22.27
2018-10-09T17:13:32.860Z,24.23
2018-10-09T17:16:13.117Z,23.73
2018-10-09T17:18:49.393Z,27.27
2018-10-09T17:21:41.585Z,26.53
2018-10-09T17:24:18.478Z,24.10
2018-10-09T17:26:59.963Z,23.20
2018-10-09T17:29:40.926Z,25.67
2018-10-09T17:41:59.982Z,24.13
2018-10-09T17:44:35.440Z,24.27
2018-10-09T17:50:22.159Z,32.53
2018-10-09T17:53:23.350Z,44.27
2018-10-09T17:56:20.475Z,38.17
2018-10-09T18:02:40.132Z,34.53
2018-10-09T18:05:56.551Z,31.57
2018-10-09T18:12:31.397Z,34.63
2018-10-09T18:15:22.398Z,31.60
2018-10-09T18:32:25.053Z,29.57
2018-10-09T18:35:29.528Z,27.20
2018-10-09T18:38:16.487Z,27.30
2018-10-09T18:41:08.596Z,26.90
2018-10-09T18:46:48.744Z,24.57
2018-10-09T18:49:36.006Z,25.87
2018-10-09T18:52:20.510Z,26.30
2018-10-09T18:58:12.254Z,26.97
2018-10-09T19:00:58.459Z,28.40
2018-10-09T19:03:55.691Z,30.23
2018-10-09T19:06:48.483Z,28.13
2018-10-09T19:12:33.626Z,28.50
2018-10-09T19:15:12.787Z,26.10
2018-10-09T19:20:49.274Z,25.97
2018-10-09T19:23:21.735Z,25.13
2018-10-09T19:25:57.892Z,24.70
2018-10-09T19:28:41.557Z,28.10
2018-10-09T19:31:14.631Z,26.23
2018-10-09T19:33:48.913Z,23.87
2018-10-09T19:36:22.151Z,28.43
2018-10-09T19:38:52.476Z,29.30
2018-10-09T19:41:22.622Z,28.23
2018-10-09T19:43:53.453Z,26.73
2018-10-09T19:46:38.863Z,27.17
2018-10-09T19:49:26.110Z,27.47
2018-10-09T19:51:56.738Z,26.20
2018-10-09T19:55:59.892Z,26.43
2018-10-09T19:58:32.027Z,23.37
2018-10-09T20:04:32.616Z,24.40
2018-10-09T20:07:05.653Z,30.60
2018-10-09T20:09:43.394Z,31.53
2018-10-09T20:12:33.066Z,27.97
2018-10-09T20:15:11.452Z,41.20
2018-10-09T20:17:43.591Z,28.87
2018-10-09T20:20:15.267Z,29.87
2018-10-09T20:22:49.687Z,30.53
2018-10-09T20:25:26.451Z,28.47
2018-10-09T20:28:02.012Z,30.30
2018-10-09T20:30:35.496Z,25.80
2018-10-09T20:33:10.897Z,24.03
2018-10-09T20:35:48.878Z,24.50
2018-10-09T20:38:21.020Z,23.87
2018-10-09T20:40:54.258Z,22.87
2018-10-09T20:43:25.342Z,24.03
2018-10-09T20:45:57.319Z,26.23
2018-10-09T20:51:12.498Z,26.67
2018-10-09T20:53:43.673Z,23.63
2018-10-09T20:56:16.413Z,24.83
2018-10-09T20:59:00.634Z,25.77
2018-10-09T21:01:33.956Z,28.70
2018-10-09T21:04:16.851Z,31.77
2018-10-09T21:06:50.780Z,30.60
2018-10-09T21:09:23.673Z,30.17
2018-10-09T21:12:02.929Z,29.20
2018-10-09T21:44:54.951Z,31.73
2018-10-09T21:47:28.707Z,32.33
2018-10-09T21:49:59.176Z,29.27
2018-10-09T21:52:35.325Z,32.40
2018-10-09T21:55:06.105Z,30.77
2018-10-09T21:57:37.686Z,29.97
2018-10-09T22:00:10.258Z,28.67
2018-10-09T22:02:44.874Z,32.23
2018-10-09T22:05:23.744Z,30.70
2018-10-09T22:07:56.586Z,32.00
2018-10-09T22:10:29.071Z,30.00
2018-10-09T22:15:47.577Z,32.10
2018-10-09T22:18:18.176Z,29.93
2018-10-09T22:20:48.016Z,30.87
2018-10-09T22:23:21.154Z,30.37
2018-10-09T22:25:51.470Z,34.13
2018-10-09T22:28:38.427Z,32.47
2018-10-09T22:31:10.124Z,32.67
2018-10-09T22:33:52.295Z,32.00
2018-10-09T22:36:27.000Z,28.17
2018-10-09T22:38:58.857Z,32.03
2018-10-09T22:41:30.565Z,34.10
2018-10-09T22:44:02.832Z,32.00
2018-10-09T22:46:42.376Z,30.80
2018-10-09T22:49:16.495Z,30.53
2018-10-09T22:51:47.479Z,31.70
2018-10-09T22:54:18.914Z,32.47
2018-10-09T22:56:53.606Z,30.87
2018-10-09T22:59:23.435Z,32.63
2018-10-09T23:01:53.492Z,31.50
2018-10-09T23:04:25.478Z,32.53
2018-10-09T23:06:55.903Z,34.73
2018-10-09T23:09:26.428Z,32.53
2018-10-09T23:11:58.397Z,33.03
2018-10-09T23:14:30.658Z,33.40
2018-10-09T23:17:04.870Z,31.47
2018-10-09T23:19:45.237Z,31.97
2018-10-09T23:22:19.687Z,32.83
2018-10-09T23:24:50.794Z,33.90
2018-10-09T23:27:23.166Z,33.70
2018-10-09T23:29:55.540Z,33.73
2018-10-09T23:32:27.293Z,32.20
2018-10-09T23:34:57.967Z,32.33
2018-10-09T23:37:27.776Z,32.77
2018-10-09T23:39:59.057Z,31.03
2018-10-09T23:42:28.825Z,33.10
2018-10-09T23:45:00.551Z,31.07
2018-10-09T23:47:31.412Z,38.17
2018-10-09T23:50:03.395Z,38.63
2018-10-09T23:52:35.802Z,38.07
2018-10-09T23:55:07.050Z,38.70
2018-10-09T23:57:40.458Z,39.77
